createdAt,value
2018-09-06T00:01:20.748Z,17.60
2018-09-06T00:03:48.765Z,17.60
2018-09-06T00:06:16.866Z,17.70
2018-09-06T00:08:44.877Z,17.60
2018-09-06T00:11:12.889Z,17.70
2018-09-06T00:13:40.902Z,17.60
2018-09-06T00:16:08.950Z,17.60
2018-09-06T00:18:36.969Z,17.60
2018-09-06T00:21:05.013Z,17.60
2018-09-06T00:23:33.028Z,17.60
2018-09-06T00:26:01.073Z,17.50
2018-09-06T00:28:29.101Z,17.50
2018-09-06T00:30:57.159Z,17.50
2018-09-06T00:33:25.200Z,17.40
2018-09-06T00:35:53.253Z,17.40
2018-09-06T00:38:21.281Z,17.40
2018-09-06T00:40:49.378Z,17.40
2018-09-06T00:43:17.433Z,17.40
2018-09-06T00:45:45.473Z,17.40
2018-09-06T00:48:13.518Z,17.30
2018-09-06T00:50:41.592Z,17.30
2018-09-06T00:53:09.625Z,17.30
2018-09-06T00:55:37.676Z,17.30
2018-09-06T00:58:05.708Z,17.30
2018-09-06T01:00:33.757Z,17.20
2018-09-06T01:03:01.788Z,17.30
2018-09-06T01:05:30.335Z,17.30
2018-09-06T01:07:58.376Z,17.20
2018-09-06T01:10:26.418Z,17.10
2018-09-06T01:12:54.489Z,17.20
2018-09-06T01:15:22.559Z,17.20
2018-09-06T01:17:50.624Z,17.20
2018-09-06T01:20:18.657Z,17.20
2018-09-06T01:22:46.710Z,17.20
2018-09-06T01:25:14.739Z,17.10
2018-09-06T01:27:42.787Z,17.10
2018-09-06T01:30:10.824Z,17.10
2018-09-06T01:32:38.920Z,17.00
2018-09-06T01:35:06.944Z,17.00
2018-09-06T01:37:35.008Z,17.00
2018-09-06T01:40:03.056Z,17.00
2018-09-06T01:42:31.115Z,16.90
2018-09-06T01:44:59.153Z,16.90
2018-09-06T01:47:27.200Z,16.90
2018-09-06T01:49:55.244Z,16.90
2018-09-06T01:52:23.275Z,16.80
2018-09-06T01:54:51.308Z,16.80
2018-09-06T01:57:19.340Z,16.90
2018-09-06T01:59:47.380Z,16.80
2018-09-06T02:02:16.376Z,16.80
2018-09-06T02:04:44.420Z,16.80
2018-09-06T02:07:12.456Z,16.70
2018-09-06T02:09:40.500Z,16.80
2018-09-06T02:12:08.524Z,16.70
2018-09-06T02:14:36.569Z,16.70
2018-09-06T02:17:04.828Z,16.80
2018-09-06T02:19:32.877Z,16.70
2018-09-06T02:22:00.914Z,16.70
2018-09-06T02:24:28.970Z,16.60
2018-09-06T02:26:56.997Z,16.60
2018-09-06T02:29:25.032Z,16.60
2018-09-06T02:31:53.110Z,16.60
2018-09-06T02:34:21.101Z,16.60
2018-09-06T02:36:49.158Z,16.50
2018-09-06T02:39:17.189Z,16.50
2018-09-06T02:41:45.232Z,16.40
2018-09-06T02:44:13.276Z,16.50
2018-09-06T02:46:41.335Z,16.40
2018-09-06T02:49:09.380Z,16.40
2018-09-06T02:51:37.427Z,16.40
2018-09-06T02:54:05.476Z,16.40
2018-09-06T02:56:33.520Z,16.40
2018-09-06T02:59:01.593Z,16.40
2018-09-06T03:01:29.624Z,16.40
2018-09-06T03:03:57.672Z,16.40
2018-09-06T03:06:25.700Z,16.30
2018-09-06T03:08:53.752Z,16.30
2018-09-06T03:11:26.028Z,16.20
2018-09-06T03:13:54.216Z,16.20
2018-09-06T03:16:22.390Z,16.20
2018-09-06T03:18:50.448Z,16.20
2018-09-06T03:21:18.798Z,16.20
2018-09-06T03:23:46.852Z,16.10
2018-09-06T03:26:18.784Z,16.10
2018-09-06T03:28:48.526Z,16.10
2018-09-06T03:31:16.699Z,16.10
2018-09-06T03:33:45.436Z,16.10
2018-09-06T03:36:13.904Z,16.10
2018-09-06T03:38:41.968Z,16.10
2018-09-06T03:41:09.994Z,16.10
2018-09-06T03:43:38.020Z,16.10
2018-09-06T03:46:07.088Z,16.00
2018-09-06T03:48:35.122Z,16.00
2018-09-06T03:51:03.350Z,15.90
2018-09-06T03:53:31.416Z,15.90
2018-09-06T03:55:59.452Z,15.90
2018-09-06T03:58:27.488Z,15.80
2018-09-06T04:00:55.510Z,15.80
2018-09-06T04:03:23.568Z,15.80
2018-09-06T04:05:51.603Z,15.80
2018-09-06T04:08:19.648Z,15.80
2018-09-06T04:10:47.697Z,15.80
2018-09-06T04:13:15.769Z,15.80
2018-09-06T04:15:43.804Z,15.80
2018-09-06T04:18:11.886Z,15.80
2018-09-06T04:20:39.923Z,15.80
2018-09-06T04:23:07.977Z,15.80
2018-09-06T04:25:35.988Z,15.80
2018-09-06T04:28:04.052Z,15.70
2018-09-06T04:30:32.082Z,15.70
2018-09-06T04:33:00.125Z,15.70
2018-09-06T04:35:28.170Z,15.70
2018-09-06T04:37:56.184Z,15.80
2018-09-06T04:40:24.212Z,15.80
2018-09-06T04:42:52.257Z,15.80
2018-09-06T04:45:20.298Z,15.90
2018-09-06T04:47:48.326Z,15.80
2018-09-06T04:50:16.372Z,15.80
2018-09-06T04:52:44.402Z,15.80
2018-09-06T04:55:12.494Z,15.90
2018-09-06T04:57:40.460Z,15.90
2018-09-06T05:00:08.505Z,15.90
2018-09-06T05:02:36.572Z,15.90
2018-09-06T05:05:05.009Z,15.90
2018-09-06T05:07:33.051Z,15.90
2018-09-06T05:10:01.078Z,16.00
2018-09-06T05:12:29.117Z,16.00
2018-09-06T05:14:57.128Z,16.00
2018-09-06T05:17:25.156Z,16.00
2018-09-06T05:19:53.187Z,16.00
2018-09-06T05:22:21.248Z,16.00
2018-09-06T05:24:49.268Z,16.00
2018-09-06T05:27:17.300Z,16.00
2018-09-06T05:29:45.345Z,16.00
2018-09-06T05:32:13.384Z,16.00
2018-09-06T05:34:41.420Z,16.00
2018-09-06T05:37:09.439Z,16.00
2018-09-06T05:39:37.507Z,16.10
2018-09-06T05:42:05.761Z,16.10
2018-09-06T05:44:33.788Z,16.20
2018-09-06T05:47:01.854Z,16.30
2018-09-06T05:49:29.923Z,16.30
2018-09-06T05:51:58.316Z,16.30
2018-09-06T05:54:26.364Z,16.30
2018-09-06T05:56:54.403Z,16.40
2018-09-06T05:59:22.500Z,16.50
2018-09-06T06:01:50.549Z,16.50
2018-09-06T06:04:18.583Z,16.60
2018-09-06T06:06:46.625Z,16.60
2018-09-06T06:09:14.673Z,16.70
2018-09-06T06:11:42.730Z,16.80
2018-09-06T06:14:10.752Z,16.70
2018-09-06T06:16:38.796Z,16.80
2018-09-06T06:19:06.858Z,16.80
2018-09-06T06:21:34.902Z,16.80
2018-09-06T06:24:02.952Z,16.90
2018-09-06T06:26:31.007Z,17.00
2018-09-06T06:28:59.044Z,17.00
2018-09-06T06:31:27.056Z,17.10
2018-09-06T06:33:55.155Z,17.10
2018-09-06T06:36:23.164Z,17.20
2018-09-06T06:38:51.170Z,17.30
2018-09-06T06:41:19.201Z,17.30
2018-09-06T06:43:47.249Z,17.30
2018-09-06T06:46:15.267Z,17.30
2018-09-06T06:48:43.312Z,17.40
2018-09-06T06:51:11.415Z,17.40
2018-09-06T06:53:39.433Z,17.50
2018-09-06T06:56:07.452Z,17.40
2018-09-06T06:58:35.564Z,17.50
2018-09-06T07:01:03.630Z,17.50
2018-09-06T07:03:31.643Z,17.50
2018-09-06T07:05:59.692Z,17.50
2018-09-06T07:08:27.710Z,17.60
2018-09-06T07:10:55.768Z,17.60
2018-09-06T07:13:23.814Z,17.70
2018-09-06T07:15:51.829Z,17.70
2018-09-06T07:18:19.936Z,17.80
2018-09-06T07:20:48.055Z,17.80
2018-09-06T07:23:16.095Z,17.90
2018-09-06T07:25:44.147Z,18.00
2018-09-06T07:28:12.169Z,18.10
2018-09-06T07:30:40.286Z,18.20
2018-09-06T07:33:08.232Z,18.30
2018-09-06T07:35:36.284Z,18.30
2018-09-06T07:38:04.359Z,18.40
2018-09-06T07:40:32.385Z,18.40
2018-09-06T07:43:00.417Z,18.50
2018-09-06T07:45:28.441Z,18.40
2018-09-06T07:47:56.456Z,18.50
2018-09-06T07:50:24.500Z,18.60
2018-09-06T07:52:52.536Z,18.70
2018-09-06T07:55:20.584Z,18.70
2018-09-06T07:57:48.613Z,18.70
2018-09-06T08:00:16.630Z,18.70
2018-09-06T08:02:44.675Z,18.80
2018-09-06T08:05:12.706Z,18.80
2018-09-06T08:07:40.741Z,18.80
2018-09-06T08:10:08.772Z,19.00
2018-09-06T08:12:36.799Z,19.10
2018-09-06T08:15:05.199Z,19.20
2018-09-06T08:17:33.229Z,19.20
2018-09-06T08:20:01.259Z,19.30
2018-09-06T08:22:29.294Z,19.40
2018-09-06T08:24:57.317Z,19.40
2018-09-06T08:27:25.359Z,19.40
2018-09-06T08:29:53.390Z,19.40
2018-09-06T08:32:21.436Z,19.30
2018-09-06T08:34:49.480Z,19.40
2018-09-06T08:37:17.589Z,19.40
2018-09-06T08:39:45.852Z,19.50
2018-09-06T08:42:13.889Z,19.50
2018-09-06T08:44:41.917Z,19.60
2018-09-06T08:47:09.965Z,19.70
2018-09-06T08:49:38.036Z,19.70
2018-09-06T08:52:06.404Z,19.80
2018-09-06T08:54:34.428Z,19.90
2018-09-06T08:57:02.464Z,20.00
2018-09-06T08:59:30.497Z,20.00
2018-09-06T09:01:58.599Z,20.20
2018-09-06T09:04:26.651Z,20.20
2018-09-06T09:06:54.691Z,20.10
2018-09-06T09:09:22.722Z,20.10
2018-09-06T09:11:50.765Z,20.30
2018-09-06T09:14:18.799Z,20.20
2018-09-06T09:16:46.832Z,20.30
2018-09-06T09:19:14.872Z,20.30
2018-09-06T09:21:42.968Z,20.50
2018-09-06T09:24:10.989Z,20.60
2018-09-06T09:26:39.030Z,20.60
2018-09-06T09:29:07.075Z,20.70
2018-09-06T09:31:35.065Z,19.30
2018-09-06T09:34:03.104Z,20.90
2018-09-06T09:36:31.128Z,20.90
2018-09-06T09:38:59.173Z,21.00
2018-09-06T09:41:27.213Z,21.10
2018-09-06T09:43:55.221Z,21.20
2018-09-06T09:48:50.577Z,21.40
2018-09-06T09:51:18.620Z,21.60
2018-09-06T09:53:46.643Z,21.70
2018-09-06T09:56:14.656Z,21.80
2018-09-06T09:58:42.696Z,21.80
2018-09-06T10:01:10.872Z,21.90
2018-09-06T10:03:44.465Z,21.90
2018-09-06T10:06:18.031Z,22.00
2018-09-06T10:08:51.500Z,22.10
2018-09-06T10:11:19.562Z,22.30
2018-09-06T10:13:47.577Z,22.40
2018-09-06T10:16:15.691Z,22.40
2018-09-06T10:18:43.703Z,22.50
2018-09-06T10:21:11.718Z,22.50
2018-09-06T10:23:39.810Z,22.60
2018-09-06T10:26:07.832Z,22.70
2018-09-06T10:28:35.860Z,22.80
2018-09-06T10:31:03.888Z,22.80
2018-09-06T10:33:31.916Z,22.90
2018-09-06T10:35:59.941Z,23.00
2018-09-06T10:38:27.972Z,23.10
2018-09-06T10:40:56.012Z,23.10
2018-09-06T10:43:24.048Z,23.20
2018-09-06T10:45:52.083Z,23.30
2018-09-06T10:48:20.116Z,23.30
2018-09-06T10:50:48.140Z,23.30
2018-09-06T10:53:16.186Z,23.30
2018-09-06T10:55:44.234Z,23.50
2018-09-06T10:58:12.299Z,23.60
2018-09-06T11:00:40.369Z,23.60
2018-09-06T11:03:08.384Z,23.70
2018-09-06T11:05:36.786Z,23.70
2018-09-06T11:08:04.954Z,23.70
2018-09-06T11:10:32.904Z,23.60
2018-09-06T11:13:00.944Z,23.70
2018-09-06T11:15:28.977Z,23.70
2018-09-06T11:17:57.073Z,23.80
2018-09-06T11:20:25.077Z,23.90
2018-09-06T11:22:53.108Z,23.90
2018-09-06T11:25:21.148Z,24.00
2018-09-06T11:27:49.217Z,24.10
2018-09-06T11:30:17.240Z,24.30
2018-09-06T11:32:45.274Z,24.40
2018-09-06T11:35:13.309Z,24.40
2018-09-06T11:37:41.329Z,24.50
2018-09-06T11:40:09.392Z,24.60
2018-09-06T11:42:37.380Z,24.50
2018-09-06T11:45:05.469Z,24.50
2018-09-06T11:47:33.510Z,24.60
2018-09-06T11:50:01.512Z,24.70
2018-09-06T11:52:29.541Z,24.90
2018-09-06T11:54:57.570Z,24.90
2018-09-06T11:57:25.596Z,24.90
2018-09-06T11:59:53.654Z,25.10
2018-09-06T12:02:21.693Z,25.20
2018-09-06T12:04:49.721Z,25.40
2018-09-06T12:07:17.839Z,25.50
2018-09-06T12:09:45.877Z,25.40
2018-09-06T12:12:13.896Z,25.50
2018-09-06T12:14:41.920Z,25.50
2018-09-06T12:17:10.045Z,25.50
2018-09-06T12:19:38.077Z,25.60
2018-09-06T12:22:06.094Z,25.70
2018-09-06T12:24:34.104Z,25.60
2018-09-06T12:27:02.133Z,25.70
2018-09-06T12:29:30.296Z,25.80
2018-09-06T12:31:58.336Z,25.90
2018-09-06T12:34:26.368Z,25.80
2018-09-06T12:36:54.397Z,25.80
2018-09-06T12:39:22.444Z,25.90
2018-09-06T12:41:50.486Z,26.00
2018-09-06T12:44:18.507Z,26.00
2018-09-06T12:46:46.554Z,26.00
2018-09-06T12:49:14.621Z,26.00
2018-09-06T12:51:42.657Z,26.00
2018-09-06T12:54:10.697Z,26.20
2018-09-06T12:56:38.809Z,26.30
2018-09-06T12:59:06.795Z,26.30
2018-09-06T13:01:34.845Z,26.30
2018-09-06T13:04:02.896Z,26.30
2018-09-06T13:06:31.141Z,26.30
2018-09-06T13:08:59.172Z,26.30
2018-09-06T13:11:27.249Z,26.50
2018-09-06T13:13:55.316Z,26.50
2018-09-06T13:16:23.364Z,26.60
2018-09-06T13:18:51.487Z,26.70
2018-09-06T13:21:19.422Z,28.00
2018-09-06T13:23:47.504Z,26.70
2018-09-06T13:26:15.566Z,26.70
2018-09-06T13:28:43.605Z,26.50
2018-09-06T13:31:11.666Z,26.50
2018-09-06T13:33:39.721Z,26.40
2018-09-06T13:36:07.744Z,26.40
2018-09-06T13:38:35.788Z,26.30
2018-09-06T13:41:03.880Z,26.40
2018-09-06T13:43:31.931Z,26.50
2018-09-06T13:45:59.956Z,26.50
2018-09-06T13:48:28.024Z,26.50
2018-09-06T13:50:56.056Z,26.60
2018-09-06T13:53:24.080Z,26.50
2018-09-06T13:55:52.103Z,26.60
2018-09-06T13:58:20.175Z,26.70
2018-09-06T14:00:48.278Z,26.80
2018-09-06T14:03:16.304Z,26.80
2018-09-06T14:05:44.354Z,26.90
2018-09-06T14:08:12.380Z,27.00
2018-09-06T14:10:40.420Z,27.10
2018-09-06T14:13:08.456Z,27.10
2018-09-06T14:15:36.501Z,27.20
2018-09-06T14:18:04.549Z,27.20
2018-09-06T14:20:32.777Z,27.20
2018-09-06T14:23:00.812Z,27.30
2018-09-06T14:25:28.848Z,27.40
2018-09-06T14:27:56.888Z,27.50
2018-09-06T14:30:24.962Z,27.20
2018-09-06T14:32:52.977Z,27.00
2018-09-06T14:35:21.024Z,27.00
2018-09-06T14:37:49.076Z,26.90
2018-09-06T14:40:17.176Z,26.90
2018-09-06T14:42:45.289Z,26.90
2018-09-06T14:45:14.096Z,27.00
2018-09-06T14:47:42.140Z,26.90
2018-09-06T14:50:10.192Z,27.10
2018-09-06T14:52:38.376Z,27.20
2018-09-06T14:55:07.002Z,27.20
2018-09-06T14:57:35.038Z,27.10
2018-09-06T15:00:03.205Z,26.80
2018-09-06T15:02:31.236Z,26.80
2018-09-06T15:04:59.292Z,26.70
2018-09-06T15:07:27.395Z,26.70
2018-09-06T15:09:55.488Z,26.90
2018-09-06T15:12:23.520Z,27.10
2018-09-06T15:14:51.564Z,27.30
2018-09-06T15:17:19.620Z,27.50
2018-09-06T15:19:47.668Z,27.70
2018-09-06T15:22:15.726Z,27.50
2018-09-06T15:24:43.777Z,27.60
2018-09-06T15:27:11.908Z,27.60
2018-09-06T15:29:39.952Z,27.70
2018-09-06T15:32:08.160Z,27.40
2018-09-06T15:34:36.224Z,27.20
2018-09-06T15:37:04.285Z,27.20
2018-09-06T15:39:32.316Z,27.50
2018-09-06T15:42:00.384Z,27.80
2018-09-06T15:44:28.405Z,28.10
2018-09-06T15:46:56.460Z,28.90
2018-09-06T15:49:24.505Z,29.70
2018-09-06T15:51:52.532Z,30.00
2018-09-06T15:54:20.579Z,30.40
2018-09-06T15:56:48.644Z,31.00
2018-09-06T15:59:16.697Z,31.40
2018-09-06T16:01:44.981Z,31.40
2018-09-06T16:04:12.984Z,31.60
2018-09-06T16:06:41.011Z,31.70
2018-09-06T16:09:09.076Z,31.70
2018-09-06T16:11:37.100Z,32.00
2018-09-06T16:14:05.152Z,31.50
2018-09-06T16:16:33.184Z,31.30
2018-09-06T16:19:01.227Z,30.90
2018-09-06T16:21:29.292Z,30.40
2018-09-06T16:23:57.321Z,29.90
2018-09-06T16:26:25.408Z,29.20
2018-09-06T16:28:53.518Z,28.50
2018-09-06T16:31:21.572Z,28.00
2018-09-06T16:33:49.603Z,27.60
2018-09-06T16:36:17.673Z,27.50
2018-09-06T16:38:45.720Z,27.10
2018-09-06T16:41:13.769Z,26.90
2018-09-06T16:43:41.804Z,26.80
2018-09-06T16:46:09.876Z,26.70
2018-09-06T16:48:37.925Z,26.50
2018-09-06T16:51:06.389Z,26.30
2018-09-06T16:53:34.427Z,26.30
2018-09-06T16:56:02.458Z,26.30
2018-09-06T16:58:30.493Z,26.30
2018-09-06T17:00:58.569Z,26.30
2018-09-06T17:03:26.641Z,26.30
2018-09-06T17:05:54.655Z,23.40
2018-09-06T17:08:22.693Z,26.10
2018-09-06T17:10:50.724Z,25.80
2018-09-06T17:13:18.769Z,25.80
2018-09-06T17:15:46.809Z,25.70
2018-09-06T17:18:14.864Z,25.60
2018-09-06T17:20:42.912Z,25.50
2018-09-06T17:23:10.971Z,25.40
2018-09-06T17:25:39.056Z,25.50
2018-09-06T17:28:07.084Z,25.10
2018-09-06T17:30:35.106Z,24.40
2018-09-06T17:33:03.142Z,23.90
2018-09-06T17:35:31.403Z,23.60
2018-09-06T17:37:59.425Z,23.30
2018-09-06T17:40:27.449Z,23.00
2018-09-06T17:42:55.475Z,22.80
2018-09-06T17:45:23.513Z,22.60
2018-09-06T17:47:51.552Z,22.30
2018-09-06T17:50:19.565Z,22.20
2018-09-06T17:52:47.604Z,22.00
2018-09-06T17:55:15.627Z,22.00
2018-09-06T17:57:43.688Z,22.10
2018-09-06T18:00:11.710Z,21.90
2018-09-06T18:02:39.729Z,21.60
2018-09-06T18:05:07.749Z,21.50
2018-09-06T18:07:35.841Z,21.30
2018-09-06T18:10:03.858Z,21.30
2018-09-06T18:12:31.873Z,21.20
2018-09-06T18:14:59.907Z,21.20
2018-09-06T18:17:28.025Z,21.10
2018-09-06T18:19:55.997Z,21.00
2018-09-06T18:22:24.004Z,21.00
2018-09-06T18:24:52.021Z,21.00
2018-09-06T18:27:20.061Z,20.90
2018-09-06T18:29:48.098Z,20.80
2018-09-06T18:32:16.096Z,20.80
2018-09-06T18:34:44.124Z,20.80
2018-09-06T18:37:12.136Z,20.70
2018-09-06T18:39:40.180Z,20.70
2018-09-06T18:42:08.220Z,20.70
2018-09-06T18:44:36.273Z,20.60
2018-09-06T18:47:04.309Z,20.60
2018-09-06T18:49:32.339Z,20.60
2018-09-06T18:52:00.384Z,20.60
2018-09-06T18:54:28.410Z,20.60
2018-09-06T18:56:56.452Z,20.60
2018-09-06T18:59:24.570Z,20.50
2018-09-06T19:01:53.448Z,20.50
2018-09-06T19:04:21.486Z,20.40
2018-09-06T19:06:49.508Z,20.30
2018-09-06T19:09:17.565Z,20.30
2018-09-06T19:11:45.564Z,20.20
2018-09-06T19:14:13.564Z,20.30
2018-09-06T19:16:41.582Z,20.30
2018-09-06T19:19:09.632Z,20.30
2018-09-06T19:21:37.655Z,20.20
2018-09-06T19:24:05.704Z,20.10
2018-09-06T19:26:33.740Z,20.10
2018-09-06T19:29:01.783Z,20.00
2018-09-06T19:31:29.855Z,20.00
2018-09-06T19:33:57.861Z,20.00
2018-09-06T19:36:25.920Z,20.00
2018-09-06T19:38:54.000Z,20.00
2018-09-06T19:41:22.020Z,20.00
2018-09-06T19:43:50.060Z,19.90
2018-09-06T19:46:18.103Z,19.90
2018-09-06T19:48:46.167Z,19.90
2018-09-06T19:51:14.171Z,19.90
2018-09-06T19:53:42.241Z,20.00
2018-09-06T19:56:10.323Z,19.90
2018-09-06T19:58:38.404Z,19.90
2018-09-06T20:01:06.433Z,19.90
2018-09-06T20:03:34.471Z,19.80
2018-09-06T20:06:02.516Z,19.80
2018-09-06T20:08:30.645Z,19.70
2018-09-06T20:10:58.620Z,19.70
2018-09-06T20:13:26.673Z,19.60
2018-09-06T20:15:54.933Z,19.60
2018-09-06T20:18:22.973Z,19.50
2018-09-06T20:20:51.225Z,19.40
2018-09-06T20:23:19.269Z,19.40
2018-09-06T20:25:47.297Z,19.50
2018-09-06T20:28:15.406Z,19.40
2018-09-06T20:30:43.376Z,19.30
2018-09-06T20:33:11.484Z,19.20
2018-09-06T20:35:39.512Z,19.20
2018-09-06T20:38:07.556Z,19.10
2018-09-06T20:40:35.582Z,19.00
2018-09-06T20:43:03.600Z,19.00
2018-09-06T20:45:31.689Z,18.90
2018-09-06T20:48:00.356Z,18.90
2018-09-06T20:50:28.460Z,19.00
2018-09-06T20:52:56.449Z,19.10
2018-09-06T20:55:24.604Z,19.10
2018-09-06T20:57:52.615Z,19.20
2018-09-06T21:00:20.680Z,19.10
2018-09-06T21:02:48.716Z,19.10
2018-09-06T21:05:16.757Z,19.20
2018-09-06T21:07:44.755Z,19.30
2018-09-06T21:10:12.771Z,19.40
2018-09-06T21:12:40.811Z,19.40
2018-09-06T21:15:08.824Z,19.50
2018-09-06T21:17:36.842Z,19.50
2018-09-06T21:20:05.376Z,19.50
2018-09-06T21:22:33.388Z,19.40
2018-09-06T21:25:01.399Z,19.50
2018-09-06T21:27:29.500Z,19.50
2018-09-06T21:29:57.615Z,19.50
2018-09-06T21:32:25.589Z,19.40
2018-09-06T21:34:53.624Z,19.40
2018-09-06T21:37:21.668Z,19.40
2018-09-06T21:39:49.728Z,19.60
2018-09-06T21:42:17.772Z,19.60
2018-09-06T21:44:45.817Z,19.70
2018-09-06T21:47:13.862Z,19.80
2018-09-06T21:49:41.919Z,19.80
2018-09-06T21:52:09.978Z,19.90
2018-09-06T21:54:37.996Z,19.90
2018-09-06T21:57:06.056Z,19.90
2018-09-06T21:59:34.120Z,20.00
2018-09-06T22:02:02.176Z,20.00
2018-09-06T22:04:30.210Z,20.10
2018-09-06T22:06:58.258Z,20.10
2018-09-06T22:09:26.273Z,20.10
2018-09-06T22:11:54.317Z,20.10
2018-09-06T22:14:22.360Z,20.20
2018-09-06T22:16:50.419Z,20.10
2018-09-06T22:19:18.510Z,20.20
2018-09-06T22:21:46.556Z,20.10
2018-09-06T22:24:14.592Z,20.10
2018-09-06T22:26:42.613Z,20.00
2018-09-06T22:29:10.624Z,19.90
2018-09-06T22:31:38.660Z,19.80
2018-09-06T22:34:06.716Z,19.90
2018-09-06T22:36:34.735Z,20.00
2018-09-06T22:39:02.921Z,20.00
2018-09-06T22:41:30.936Z,20.10
2018-09-06T22:43:58.980Z,20.10
2018-09-06T22:46:27.016Z,20.20
2018-09-06T22:48:55.073Z,20.10
2018-09-06T22:51:23.092Z,20.10
2018-09-06T22:53:51.113Z,20.10
2018-09-06T22:56:19.139Z,20.10
2018-09-06T22:58:47.157Z,20.20
2018-09-06T23:01:15.180Z,20.20
2018-09-06T23:03:44.189Z,20.20
2018-09-06T23:06:12.189Z,20.10
2018-09-06T23:08:40.221Z,20.00
2018-09-06T23:11:08.269Z,20.00
2018-09-06T23:13:36.284Z,20.00
2018-09-06T23:18:37.780Z,19.90
2018-09-06T23:21:05.844Z,19.90
2018-09-06T23:23:33.872Z,19.90
2018-09-06T23:26:01.895Z,19.90
2018-09-06T23:28:29.928Z,20.00
2018-09-06T23:30:57.936Z,19.90
2018-09-06T23:33:25.960Z,19.80
2018-09-06T23:35:53.997Z,19.70
2018-09-06T23:38:22.044Z,19.70
2018-09-06T23:40:56.468Z,19.80
2018-09-06T23:43:25.616Z,19.60
2018-09-06T23:45:56.860Z,19.60
2018-09-06T23:48:26.264Z,19.60
2018-09-06T23:50:55.240Z,19.60
2018-09-06T23:53:23.737Z,19.50
2018-09-06T23:55:51.771Z,19.50
2018-09-06T23:58:19.972Z,19.40
